sensor_id;sensor_type;location;lat;lon;timestamp;P1;durP1;ratioP1;P2;durP2;ratioP2
55609;SDS011;41486;52.502;13.486;2023-05-21T00:00:40;9.35;;;6.28;;
55609;SDS011;41486;52.502;13.486;2023-05-21T00:03:08;8.48;;;7.05;;
55609;SDS011;41486;52.502;13.486;2023-05-21T00:05:39;8.75;;;6.10;;
55609;SDS011;41486;52.502;13.486;2023-05-21T00:08:07;9.85;;;6.63;;
55609;SDS011;41486;52.502;13.486;2023-05-21T00:10:36;8.20;;;5.78;;
55609;SDS011;41486;52.502;13.486;2023-05-21T00:13:04;13.02;;;6.85;;
55609;SDS011;41486;52.502;13.486;2023-05-21T00:15:32;8.30;;;5.70;;
55609;SDS011;41486;52.502;13.486;2023-05-21T00:18:02;11.27;;;6.25;;
55609;SDS011;41486;52.502;13.486;2023-05-21T00:20:30;9.85;;;5.38;;
55609;SDS011;41486;52.502;13.486;2023-05-21T00:22:58;9.68;;;6.28;;
55609;SDS011;41486;52.502;13.486;2023-05-21T00:25:28;8.35;;;5.85;;
55609;SDS011;41486;52.502;13.486;2023-05-21T00:27:56;8.95;;;6.20;;
55609;SDS011;41486;52.502;13.486;2023-05-21T00:30:24;10.85;;;6.30;;
55609;SDS011;41486;52.502;13.486;2023-05-21T00:32:52;8.80;;;6.20;;
55609;SDS011;41486;52.502;13.486;2023-05-21T00:35:21;11.63;;;6.38;;
55609;SDS011;41486;52.502;13.486;2023-05-21T00:37:50;9.43;;;6.07;;
55609;SDS011;41486;52.502;13.486;2023-05-21T00:40:19;9.13;;;6.25;;
55609;SDS011;41486;52.502;13.486;2023-05-21T00:42:47;10.40;;;6.60;;
55609;SDS011;41486;52.502;13.486;2023-05-21T00:45:15;8.68;;;6.60;;
55609;SDS011;41486;52.502;13.486;2023-05-21T00:47:43;7.75;;;5.35;;
55609;SDS011;41486;52.502;13.486;2023-05-21T00:50:14;9.75;;;6.30;;
55609;SDS011;41486;52.502;13.486;2023-05-21T00:52:44;9.23;;;5.75;;
55609;SDS011;41486;52.502;13.486;2023-05-21T00:55:12;10.48;;;6.10;;
55609;SDS011;41486;52.502;13.486;2023-05-21T00:57:41;11.50;;;6.82;;
55609;SDS011;41486;52.502;13.486;2023-05-21T01:00:09;7.63;;;6.20;;
55609;SDS011;41486;52.502;13.486;2023-05-21T01:02:40;9.52;;;6.07;;
55609;SDS011;41486;52.502;13.486;2023-05-21T01:05:09;10.48;;;6.15;;
55609;SDS011;41486;52.502;13.486;2023-05-21T01:07:38;7.80;;;5.43;;
55609;SDS011;41486;52.502;13.486;2023-05-21T01:10:11;9.90;;;6.03;;
55609;SDS011;41486;52.502;13.486;2023-05-21T01:12:39;8.68;;;5.65;;
55609;SDS011;41486;52.502;13.486;2023-05-21T01:15:10;9.27;;;5.68;;
55609;SDS011;41486;52.502;13.486;2023-05-21T01:17:39;12.57;;;7.10;;
55609;SDS011;41486;52.502;13.486;2023-05-21T01:20:08;8.68;;;6.25;;
55609;SDS011;41486;52.502;13.486;2023-05-21T01:22:41;7.53;;;6.10;;
55609;SDS011;41486;52.502;13.486;2023-05-21T01:25:11;7.30;;;5.97;;
55609;SDS011;41486;52.502;13.486;2023-05-21T01:27:40;8.45;;;6.07;;
55609;SDS011;41486;52.502;13.486;2023-05-21T01:30:09;10.70;;;6.65;;
55609;SDS011;41486;52.502;13.486;2023-05-21T01:32:39;10.48;;;6.63;;
55609;SDS011;41486;52.502;13.486;2023-05-21T01:35:12;12.35;;;7.38;;
55609;SDS011;41486;52.502;13.486;2023-05-21T01:37:46;9.48;;;6.55;;
55609;SDS011;41486;52.502;13.486;2023-05-21T02:44:03;14.43;;;7.57;;
55609;SDS011;41486;52.502;13.486;2023-05-21T02:46:31;13.60;;;8.02;;
55609;SDS011;41486;52.502;13.486;2023-05-21T02:48:59;11.35;;;7.50;;
55609;SDS011;41486;52.502;13.486;2023-05-21T02:51:27;10.25;;;7.63;;
55609;SDS011;41486;52.502;13.486;2023-05-21T02:53:56;12.68;;;8.52;;
55609;SDS011;41486;52.502;13.486;2023-05-21T02:56:25;10.38;;;7.03;;
55609;SDS011;41486;52.502;13.486;2023-05-21T02:58:53;11.63;;;8.02;;
55609;SDS011;41486;52.502;13.486;2023-05-21T03:01:23;12.23;;;8.93;;
55609;SDS011;41486;52.502;13.486;2023-05-21T03:03:52;13.25;;;9.10;;
55609;SDS011;41486;52.502;13.486;2023-05-21T03:06:21;12.13;;;8.38;;
55609;SDS011;41486;52.502;13.486;2023-05-21T03:08:49;13.82;;;7.93;;
55609;SDS011;41486;52.502;13.486;2023-05-21T03:11:17;11.13;;;8.82;;
55609;SDS011;41486;52.502;13.486;2023-05-21T03:13:46;11.63;;;8.32;;
55609;SDS011;41486;52.502;13.486;2023-05-21T03:16:14;11.82;;;8.13;;
55609;SDS011;41486;52.502;13.486;2023-05-21T03:18:44;18.38;;;10.13;;
55609;SDS011;41486;52.502;13.486;2023-05-21T03:21:12;11.40;;;8.70;;
55609;SDS011;41486;52.502;13.486;2023-05-21T03:23:41;13.45;;;9.25;;
55609;SDS011;41486;52.502;13.486;2023-05-21T03:26:09;13.48;;;9.30;;
55609;SDS011;41486;52.502;13.486;2023-05-21T03:28:39;12.98;;;8.60;;
55609;SDS011;41486;52.502;13.486;2023-05-21T03:31:08;13.90;;;8.65;;
55609;SDS011;41486;52.502;13.486;2023-05-21T03:33:42;13.18;;;9.18;;
55609;SDS011;41486;52.502;13.486;2023-05-21T03:36:27;14.10;;;8.77;;
55609;SDS011;41486;52.502;13.486;2023-05-21T03:38:56;11.30;;;8.40;;
55609;SDS011;41486;52.502;13.486;2023-05-21T03:41:24;11.95;;;8.50;;
55609;SDS011;41486;52.502;13.486;2023-05-21T03:43:58;13.68;;;9.43;;
55609;SDS011;41486;52.502;13.486;2023-05-21T03:46:33;13.70;;;8.85;;
55609;SDS011;41486;52.502;13.486;2023-05-21T03:49:09;13.57;;;9.23;;
55609;SDS011;41486;52.502;13.486;2023-05-21T03:51:38;12.38;;;8.25;;
55609;SDS011;41486;52.502;13.486;2023-05-21T03:54:10;12.68;;;9.02;;
55609;SDS011;41486;52.502;13.486;2023-05-21T03:56:39;17.83;;;10.27;;
55609;SDS011;41486;52.502;13.486;2023-05-21T03:59:08;18.20;;;10.35;;
55609;SDS011;41486;52.502;13.486;2023-05-21T04:01:37;13.52;;;8.70;;
55609;SDS011;41486;52.502;13.486;2023-05-21T04:04:10;15.45;;;9.52;;
55609;SDS011;41486;52.502;13.486;2023-05-21T04:06:38;12.77;;;9.27;;
55609;SDS011;41486;52.502;13.486;2023-05-21T04:09:08;15.35;;;9.57;;
55609;SDS011;41486;52.502;13.486;2023-05-21T04:11:37;11.73;;;8.55;;
55609;SDS011;41486;52.502;13.486;2023-05-21T04:14:06;14.43;;;9.73;;
55609;SDS011;41486;52.502;13.486;2023-05-21T04:16:34;14.63;;;9.90;;
55609;SDS011;41486;52.502;13.486;2023-05-21T04:19:04;14.07;;;9.30;;
55609;SDS011;41486;52.502;13.486;2023-05-21T04:21:34;13.18;;;8.93;;
55609;SDS011;41486;52.502;13.486;2023-05-21T04:24:04;12.55;;;8.95;;
55609;SDS011;41486;52.502;13.486;2023-05-21T04:26:51;15.07;;;9.10;;
55609;SDS011;41486;52.502;13.486;2023-05-21T04:29:19;14.50;;;9.95;;
55609;SDS011;41486;52.502;13.486;2023-05-21T04:31:48;15.13;;;9.45;;
55609;SDS011;41486;52.502;13.486;2023-05-21T04:34:17;14.75;;;9.88;;
55609;SDS011;41486;52.502;13.486;2023-05-21T04:36:47;11.98;;;8.98;;
55609;SDS011;41486;52.502;13.486;2023-05-21T04:39:17;16.60;;;9.80;;
55609;SDS011;41486;52.502;13.486;2023-05-21T04:41:45;12.40;;;8.48;;
55609;SDS011;41486;52.502;13.486;2023-05-21T04:44:14;12.95;;;9.07;;
55609;SDS011;41486;52.502;13.486;2023-05-21T04:46:43;14.98;;;10.30;;
55609;SDS011;41486;52.502;13.486;2023-05-21T04:49:12;18.63;;;10.70;;
55609;SDS011;41486;52.502;13.486;2023-05-21T04:51:40;14.38;;;8.60;;
55609;SDS011;41486;52.502;13.486;2023-05-21T04:54:10;12.68;;;9.88;;
55609;SDS011;41486;52.502;13.486;2023-05-21T04:56:38;11.57;;;9.02;;
55609;SDS011;41486;52.502;13.486;2023-05-21T04:59:06;14.93;;;9.43;;
55609;SDS011;41486;52.502;13.486;2023-05-21T05:01:34;16.08;;;9.30;;
55609;SDS011;41486;52.502;13.486;2023-05-21T05:04:09;13.45;;;9.63;;
55609;SDS011;41486;52.502;13.486;2023-05-21T05:06:38;11.90;;;9.07;;
55609;SDS011;41486;52.502;13.486;2023-05-21T05:09:06;12.23;;;8.27;;
55609;SDS011;41486;52.502;13.486;2023-05-21T05:11:36;11.60;;;7.88;;
55609;SDS011;41486;52.502;13.486;2023-05-21T05:14:04;11.88;;;9.13;;
55609;SDS011;41486;52.502;13.486;2023-05-21T05:16:32;12.68;;;8.82;;
55609;SDS011;41486;52.502;13.486;2023-05-21T05:19:01;14.80;;;8.63;;
55609;SDS011;41486;52.502;13.486;2023-05-21T05:21:29;15.38;;;8.68;;
55609;SDS011;41486;52.502;13.486;2023-05-21T05:23:58;16.77;;;9.85;;
55609;SDS011;41486;52.502;13.486;2023-05-21T05:26:30;13.55;;;8.70;;
55609;SDS011;41486;52.502;13.486;2023-05-21T05:29:00;12.50;;;8.85;;
55609;SDS011;41486;52.502;13.486;2023-05-21T05:31:28;13.27;;;9.43;;
55609;SDS011;41486;52.502;13.486;2023-05-21T05:33:56;12.85;;;8.05;;
55609;SDS011;41486;52.502;13.486;2023-05-21T05:36:24;11.15;;;7.82;;
55609;SDS011;41486;52.502;13.486;2023-05-21T05:38:52;12.95;;;8.77;;
55609;SDS011;41486;52.502;13.486;2023-05-21T05:41:21;12.10;;;8.73;;
55609;SDS011;41486;52.502;13.486;2023-05-21T05:43:49;12.52;;;9.32;;
55609;SDS011;41486;52.502;13.486;2023-05-21T05:46:20;9.68;;;8.27;;
55609;SDS011;41486;52.502;13.486;2023-05-21T05:48:50;11.00;;;8.02;;
55609;SDS011;41486;52.502;13.486;2023-05-21T05:51:18;15.00;;;8.15;;
55609;SDS011;41486;52.502;13.486;2023-05-21T05:53:46;11.93;;;8.68;;
55609;SDS011;41486;52.502;13.486;2023-05-21T05:56:14;12.45;;;8.23;;
55609;SDS011;41486;52.502;13.486;2023-05-21T05:58:43;11.20;;;8.85;;
55609;SDS011;41486;52.502;13.486;2023-05-21T06:01:13;13.68;;;8.18;;
55609;SDS011;41486;52.502;13.486;2023-05-21T06:03:43;10.02;;;7.90;;
55609;SDS011;41486;52.502;13.486;2023-05-21T06:06:17;12.13;;;9.07;;
55609;SDS011;41486;52.502;13.486;2023-05-21T06:08:46;13.65;;;9.05;;
55609;SDS011;41486;52.502;13.486;2023-05-21T06:11:14;12.65;;;9.48;;
55609;SDS011;41486;52.502;13.486;2023-05-21T06:13:44;11.13;;;8.27;;
55609;SDS011;41486;52.502;13.486;2023-05-21T06:16:15;12.95;;;8.85;;
55609;SDS011;41486;52.502;13.486;2023-05-21T06:18:45;12.02;;;8.85;;
55609;SDS011;41486;52.502;13.486;2023-05-21T06:21:13;9.10;;;6.90;;
55609;SDS011;41486;52.502;13.486;2023-05-21T06:23:41;11.88;;;7.97;;
55609;SDS011;41486;52.502;13.486;2023-05-21T06:26:09;11.02;;;7.78;;
55609;SDS011;41486;52.502;13.486;2023-05-21T06:28:40;13.38;;;7.68;;
55609;SDS011;41486;52.502;13.486;2023-05-21T06:31:09;11.02;;;7.30;;
55609;SDS011;41486;52.502;13.486;2023-05-21T06:33:37;13.88;;;7.75;;
55609;SDS011;41486;52.502;13.486;2023-05-21T06:36:07;10.45;;;7.57;;
55609;SDS011;41486;52.502;13.486;2023-05-21T06:38:36;9.73;;;6.78;;
55609;SDS011;41486;52.502;13.486;2023-05-21T06:41:04;13.57;;;7.05;;
55609;SDS011;41486;52.502;13.486;2023-05-21T06:43:53;8.75;;;6.75;;
55609;SDS011;41486;52.502;13.486;2023-05-21T06:46:55;10.57;;;7.85;;
55609;SDS011;41486;52.502;13.486;2023-05-21T06:49:23;14.18;;;8.10;;
55609;SDS011;41486;52.502;13.486;2023-05-21T06:51:53;10.60;;;7.07;;
55609;SDS011;41486;52.502;13.486;2023-05-21T06:54:21;9.85;;;6.68;;
55609;SDS011;41486;52.502;13.486;2023-05-21T06:56:52;12.88;;;7.43;;
55609;SDS011;41486;52.502;13.486;2023-05-21T06:59:20;16.23;;;8.07;;
55609;SDS011;41486;52.502;13.486;2023-05-21T07:01:48;17.13;;;7.97;;
55609;SDS011;41486;52.502;13.486;2023-05-21T07:04:16;9.32;;;7.38;;
55609;SDS011;41486;52.502;13.486;2023-05-21T07:06:44;10.43;;;7.20;;
55609;SDS011;41486;52.502;13.486;2023-05-21T07:09:21;9.40;;;7.75;;
55609;SDS011;41486;52.502;13.486;2023-05-21T07:11:50;12.65;;;7.72;;
55609;SDS011;41486;52.502;13.486;2023-05-21T07:14:19;11.10;;;7.53;;
55609;SDS011;41486;52.502;13.486;2023-05-21T07:16:49;11.70;;;7.40;;
55609;SDS011;41486;52.502;13.486;2023-05-21T07:19:18;9.77;;;7.03;;
55609;SDS011;41486;52.502;13.486;2023-05-21T07:21:49;12.90;;;7.72;;
55609;SDS011;41486;52.502;13.486;2023-05-21T07:24:17;8.88;;;6.95;;
55609;SDS011;41486;52.502;13.486;2023-05-21T07:26:48;8.93;;;6.57;;
55609;SDS011;41486;52.502;13.486;2023-05-21T07:29:16;10.93;;;6.60;;
55609;SDS011;41486;52.502;13.486;2023-05-21T07:31:44;12.05;;;7.50;;
55609;SDS011;41486;52.502;13.486;2023-05-21T07:34:12;10.30;;;6.88;;
55609;SDS011;41486;52.502;13.486;2023-05-21T07:36:41;8.07;;;6.53;;
55609;SDS011;41486;52.502;13.486;2023-05-21T07:39:11;10.77;;;6.13;;
55609;SDS011;41486;52.502;13.486;2023-05-21T07:41:41;8.70;;;6.70;;
55609;SDS011;41486;52.502;13.486;2023-05-21T07:44:11;12.10;;;7.43;;
55609;SDS011;41486;52.502;13.486;2023-05-21T07:46:41;7.60;;;5.68;;
55609;SDS011;41486;52.502;13.486;2023-05-21T07:49:11;7.38;;;6.50;;
55609;SDS011;41486;52.502;13.486;2023-05-21T07:51:43;9.00;;;6.28;;
55609;SDS011;41486;52.502;13.486;2023-05-21T07:54:15;7.47;;;6.40;;
55609;SDS011;41486;52.502;13.486;2023-05-21T07:56:45;8.50;;;6.28;;
55609;SDS011;41486;52.502;13.486;2023-05-21T07:59:30;12.23;;;6.35;;
55609;SDS011;41486;52.502;13.486;2023-05-21T08:01:59;9.38;;;6.35;;
55609;SDS011;41486;52.502;13.486;2023-05-21T08:04:27;8.55;;;6.47;;
55609;SDS011;41486;52.502;13.486;2023-05-21T08:06:55;7.50;;;6.10;;
55609;SDS011;41486;52.502;13.486;2023-05-21T08:09:24;9.20;;;6.18;;
55609;SDS011;41486;52.502;13.486;2023-05-21T08:11:52;9.18;;;5.95;;
55609;SDS011;41486;52.502;13.486;2023-05-21T08:14:20;8.27;;;5.70;;
55609;SDS011;41486;52.502;13.486;2023-05-21T08:16:50;10.43;;;6.47;;
55609;SDS011;41486;52.502;13.486;2023-05-21T08:19:18;9.95;;;6.50;;
55609;SDS011;41486;52.502;13.486;2023-05-21T08:21:46;8.15;;;5.88;;
55609;SDS011;41486;52.502;13.486;2023-05-21T08:24:19;7.70;;;5.68;;
55609;SDS011;41486;52.502;13.486;2023-05-21T08:26:49;8.93;;;5.90;;
55609;SDS011;41486;52.502;13.486;2023-05-21T08:29:17;8.52;;;5.32;;
55609;SDS011;41486;52.502;13.486;2023-05-21T08:31:59;9.57;;;5.63;;
55609;SDS011;41486;52.502;13.486;2023-05-21T08:34:27;6.55;;;4.82;;
55609;SDS011;41486;52.502;13.486;2023-05-21T08:37:09;9.32;;;5.50;;
55609;SDS011;41486;52.502;13.486;2023-05-21T08:39:55;8.90;;;5.20;;
55609;SDS011;41486;52.502;13.486;2023-05-21T08:42:29;6.28;;;4.93;;
55609;SDS011;41486;52.502;13.486;2023-05-21T08:45:04;10.60;;;5.78;;
55609;SDS011;41486;52.502;13.486;2023-05-21T08:47:34;6.50;;;4.80;;
55609;SDS011;41486;52.502;13.486;2023-05-21T08:50:05;8.73;;;5.85;;
55609;SDS011;41486;52.502;13.486;2023-05-21T08:52:36;9.38;;;5.45;;
55609;SDS011;41486;52.502;13.486;2023-05-21T08:55:05;8.00;;;5.35;;
55609;SDS011;41486;52.502;13.486;2023-05-21T08:57:35;6.28;;;4.47;;
55609;SDS011;41486;52.502;13.486;2023-05-21T09:00:04;7.22;;;4.70;;
55609;SDS011;41486;52.502;13.486;2023-05-21T09:02:39;6.38;;;4.43;;
55609;SDS011;41486;52.502;13.486;2023-05-21T09:05:09;12.20;;;5.03;;
55609;SDS011;41486;52.502;13.486;2023-05-21T09:07:42;5.85;;;4.50;;
55609;SDS011;41486;52.502;13.486;2023-05-21T09:10:35;6.25;;;4.32;;
55609;SDS011;41486;52.502;13.486;2023-05-21T09:13:05;6.43;;;4.88;;
55609;SDS011;41486;52.502;13.486;2023-05-21T09:15:34;4.85;;;4.30;;
55609;SDS011;41486;52.502;13.486;2023-05-21T09:18:04;7.30;;;5.15;;
55609;SDS011;41486;52.502;13.486;2023-05-21T09:20:42;7.40;;;5.28;;
55609;SDS011;41486;52.502;13.486;2023-05-21T09:23:11;9.10;;;4.70;;
55609;SDS011;41486;52.502;13.486;2023-05-21T09:25:44;8.15;;;4.32;;
55609;SDS011;41486;52.502;13.486;2023-05-21T09:28:21;6.05;;;4.38;;
55609;SDS011;41486;52.502;13.486;2023-05-21T09:30:51;6.57;;;4.85;;
55609;SDS011;41486;52.502;13.486;2023-05-21T09:33:24;5.93;;;4.30;;
55609;SDS011;41486;52.502;13.486;2023-05-21T09:35:54;10.45;;;4.50;;
55609;SDS011;41486;52.502;13.486;2023-05-21T09:38:25;6.43;;;4.00;;
55609;SDS011;41486;52.502;13.486;2023-05-21T09:40:53;8.02;;;5.03;;
55609;SDS011;41486;52.502;13.486;2023-05-21T09:43:22;6.82;;;4.50;;
55609;SDS011;41486;52.502;13.486;2023-05-21T09:45:50;6.45;;;4.70;;
55609;SDS011;41486;52.502;13.486;2023-05-21T09:48:38;6.72;;;4.50;;
55609;SDS011;41486;52.502;13.486;2023-05-21T09:51:17;5.57;;;4.13;;
55609;SDS011;41486;52.502;13.486;2023-05-21T09:53:47;6.15;;;4.13;;
55609;SDS011;41486;52.502;13.486;2023-05-21T09:56:20;5.60;;;4.18;;
55609;SDS011;41486;52.502;13.486;2023-05-21T09:58:50;4.90;;;3.95;;
55609;SDS011;41486;52.502;13.486;2023-05-21T10:01:20;6.35;;;4.10;;
55609;SDS011;41486;52.502;13.486;2023-05-21T10:03:52;5.18;;;3.92;;
55609;SDS011;41486;52.502;13.486;2023-05-21T10:06:23;5.53;;;3.78;;
55609;SDS011;41486;52.502;13.486;2023-05-21T10:08:53;5.30;;;3.42;;
55609;SDS011;41486;52.502;13.486;2023-05-21T10:11:24;7.88;;;4.22;;
55609;SDS011;41486;52.502;13.486;2023-05-21T10:13:54;5.40;;;3.67;;
55609;SDS011;41486;52.502;13.486;2023-05-21T10:16:33;6.88;;;5.07;;
55609;SDS011;41486;52.502;13.486;2023-05-21T10:19:04;7.63;;;4.15;;
55609;SDS011;41486;52.502;13.486;2023-05-21T10:21:36;4.30;;;3.50;;
55609;SDS011;41486;52.502;13.486;2023-05-21T10:24:07;7.72;;;3.90;;
55609;SDS011;41486;52.502;13.486;2023-05-21T10:26:39;4.93;;;3.70;;
55609;SDS011;41486;52.502;13.486;2023-05-21T10:29:08;4.40;;;3.42;;
55609;SDS011;41486;52.502;13.486;2023-05-21T10:31:37;5.60;;;4.15;;
55609;SDS011;41486;52.502;13.486;2023-05-21T10:34:07;4.93;;;3.83;;
55609;SDS011;41486;52.502;13.486;2023-05-21T10:36:38;6.82;;;3.80;;
55609;SDS011;41486;52.502;13.486;2023-05-21T10:39:06;8.50;;;4.13;;
55609;SDS011;41486;52.502;13.486;2023-05-21T10:41:39;5.13;;;3.75;;
55609;SDS011;41486;52.502;13.486;2023-05-21T10:44:26;7.82;;;4.05;;
55609;SDS011;41486;52.502;13.486;2023-05-21T10:47:07;5.90;;;3.53;;
55609;SDS011;41486;52.502;13.486;2023-05-21T10:52:59;6.53;;;3.70;;
55609;SDS011;41486;52.502;13.486;2023-05-21T10:55:37;6.10;;;3.83;;
55609;SDS011;41486;52.502;13.486;2023-05-21T10:58:22;5.25;;;3.55;;
55609;SDS011;41486;52.502;13.486;2023-05-21T11:01:04;4.85;;;3.13;;
55609;SDS011;41486;52.502;13.486;2023-05-21T11:03:34;7.43;;;3.58;;
55609;SDS011;41486;52.502;13.486;2023-05-21T11:06:05;4.97;;;3.60;;
55609;SDS011;41486;52.502;13.486;2023-05-21T11:08:34;6.63;;;3.22;;
55609;SDS011;41486;52.502;13.486;2023-05-21T11:11:04;9.00;;;5.82;;
55609;SDS011;41486;52.502;13.486;2023-05-21T11:13:44;9.02;;;3.38;;
55609;SDS011;41486;52.502;13.486;2023-05-21T11:16:14;7.78;;;3.58;;
55609;SDS011;41486;52.502;13.486;2023-05-21T11:18:58;6.47;;;3.83;;
55609;SDS011;41486;52.502;13.486;2023-05-21T11:21:33;4.93;;;3.33;;
55609;SDS011;41486;52.502;13.486;2023-05-21T11:24:03;6.68;;;2.97;;
55609;SDS011;41486;52.502;13.486;2023-05-21T11:29:39;3.42;;;2.95;;
55609;SDS011;41486;52.502;13.486;2023-05-21T11:32:11;5.93;;;3.22;;
55609;SDS011;41486;52.502;13.486;2023-05-21T11:34:44;5.05;;;3.33;;
55609;SDS011;41486;52.502;13.486;2023-05-21T11:37:24;5.15;;;3.65;;
55609;SDS011;41486;52.502;13.486;2023-05-21T11:39:57;4.85;;;2.83;;
55609;SDS011;41486;52.502;13.486;2023-05-21T11:42:47;4.20;;;3.00;;
55609;SDS011;41486;52.502;13.486;2023-05-21T11:45:17;6.38;;;3.17;;
55609;SDS011;41486;52.502;13.486;2023-05-21T11:47:46;6.30;;;3.78;;
55609;SDS011;41486;52.502;13.486;2023-05-21T11:50:15;4.18;;;2.63;;
55609;SDS011;41486;52.502;13.486;2023-05-21T11:52:45;3.97;;;2.63;;
55609;SDS011;41486;52.502;13.486;2023-05-21T11:55:13;4.78;;;3.22;;
55609;SDS011;41486;52.502;13.486;2023-05-21T11:57:42;4.97;;;3.35;;
55609;SDS011;41486;52.502;13.486;2023-05-21T12:00:14;5.18;;;3.03;;
55609;SDS011;41486;52.502;13.486;2023-05-21T12:02:43;5.85;;;2.92;;
55609;SDS011;41486;52.502;13.486;2023-05-21T12:05:13;3.50;;;2.80;;
55609;SDS011;41486;52.502;13.486;2023-05-21T12:07:44;5.20;;;2.78;;
55609;SDS011;41486;52.502;13.486;2023-05-21T12:10:19;7.00;;;3.05;;
55609;SDS011;41486;52.502;13.486;2023-05-21T12:12:48;6.07;;;3.57;;
55609;SDS011;41486;52.502;13.486;2023-05-21T12:15:22;4.00;;;3.20;;
55609;SDS011;41486;52.502;13.486;2023-05-21T12:17:50;4.32;;;3.00;;
55609;SDS011;41486;52.502;13.486;2023-05-21T12:20:19;4.85;;;3.22;;
55609;SDS011;41486;52.502;13.486;2023-05-21T12:22:49;3.85;;;3.00;;
55609;SDS011;41486;52.502;13.486;2023-05-21T12:25:17;5.22;;;2.30;;
55609;SDS011;41486;52.502;13.486;2023-05-21T12:27:47;5.30;;;3.20;;
55609;SDS011;41486;52.502;13.486;2023-05-21T12:30:18;7.40;;;3.08;;
55609;SDS011;41486;52.502;13.486;2023-05-21T12:32:47;6.13;;;2.78;;
55609;SDS011;41486;52.502;13.486;2023-05-21T12:35:19;4.30;;;3.03;;
55609;SDS011;41486;52.502;13.486;2023-05-21T12:37:50;5.18;;;2.72;;
55609;SDS011;41486;52.502;13.486;2023-05-21T12:40:19;3.90;;;2.92;;
55609;SDS011;41486;52.502;13.486;2023-05-21T12:42:48;7.13;;;3.30;;
55609;SDS011;41486;52.502;13.486;2023-05-21T12:45:17;6.55;;;3.20;;
55609;SDS011;41486;52.502;13.486;2023-05-21T12:47:47;3.28;;;2.80;;
55609;SDS011;41486;52.502;13.486;2023-05-21T12:50:22;6.30;;;3.13;;
55609;SDS011;41486;52.502;13.486;2023-05-21T12:52:54;4.70;;;3.28;;
55609;SDS011;41486;52.502;13.486;2023-05-21T12:55:22;4.68;;;2.90;;
55609;SDS011;41486;52.502;13.486;2023-05-21T12:57:59;6.28;;;3.15;;
55609;SDS011;41486;52.502;13.486;2023-05-21T13:00:31;9.50;;;3.42;;
55609;SDS011;41486;52.502;13.486;2023-05-21T13:03:01;4.05;;;2.83;;
55609;SDS011;41486;52.502;13.486;2023-05-21T13:05:31;6.32;;;3.25;;
55609;SDS011;41486;52.502;13.486;2023-05-21T13:08:01;4.95;;;3.25;;
55609;SDS011;41486;52.502;13.486;2023-05-21T13:10:29;4.15;;;3.28;;
55609;SDS011;41486;52.502;13.486;2023-05-21T13:12:58;8.82;;;3.30;;
55609;SDS011;41486;52.502;13.486;2023-05-21T13:15:27;4.22;;;2.90;;
55609;SDS011;41486;52.502;13.486;2023-05-21T13:17:56;5.35;;;3.17;;
55609;SDS011;41486;52.502;13.486;2023-05-21T13:20:26;4.10;;;3.33;;
55609;SDS011;41486;52.502;13.486;2023-05-21T13:22:55;5.22;;;3.10;;
55609;SDS011;41486;52.502;13.486;2023-05-21T13:25:27;4.68;;;3.13;;
55609;SDS011;41486;52.502;13.486;2023-05-21T13:27:55;4.25;;;3.35;;
55609;SDS011;41486;52.502;13.486;2023-05-21T13:30:24;5.22;;;3.17;;
55609;SDS011;41486;52.502;13.486;2023-05-21T13:32:52;7.82;;;3.78;;
55609;SDS011;41486;52.502;13.486;2023-05-21T13:35:21;5.07;;;3.50;;
55609;SDS011;41486;52.502;13.486;2023-05-21T13:37:49;4.75;;;3.00;;
55609;SDS011;41486;52.502;13.486;2023-05-21T13:40:18;5.57;;;3.03;;
55609;SDS011;41486;52.502;13.486;2023-05-21T13:42:48;5.50;;;3.00;;
55609;SDS011;41486;52.502;13.486;2023-05-21T13:45:17;6.18;;;2.78;;
55609;SDS011;41486;52.502;13.486;2023-05-21T13:47:47;7.05;;;3.13;;
55609;SDS011;41486;52.502;13.486;2023-05-21T13:50:15;8.30;;;3.13;;
55609;SDS011;41486;52.502;13.486;2023-05-21T13:52:44;6.75;;;2.78;;
55609;SDS011;41486;52.502;13.486;2023-05-21T13:55:12;5.18;;;3.00;;
55609;SDS011;41486;52.502;13.486;2023-05-21T13:57:41;4.10;;;2.67;;
55609;SDS011;41486;52.502;13.486;2023-05-21T14:00:14;5.10;;;2.88;;
55609;SDS011;41486;52.502;13.486;2023-05-21T14:02:43;7.25;;;3.38;;
55609;SDS011;41486;52.502;13.486;2023-05-21T14:05:12;3.38;;;2.70;;
55609;SDS011;41486;52.502;13.486;2023-05-21T14:07:40;4.55;;;3.17;;
55609;SDS011;41486;52.502;13.486;2023-05-21T14:10:09;6.30;;;3.15;;
55609;SDS011;41486;52.502;13.486;2023-05-21T14:12:38;3.47;;;2.80;;
55609;SDS011;41486;52.502;13.486;2023-05-21T14:15:07;5.03;;;2.78;;
55609;SDS011;41486;52.502;13.486;2023-05-21T14:17:37;6.15;;;3.42;;
55609;SDS011;41486;52.502;13.486;2023-05-21T14:20:08;6.68;;;2.95;;
55609;SDS011;41486;52.502;13.486;2023-05-21T14:22:37;5.07;;;3.33;;
55609;SDS011;41486;52.502;13.486;2023-05-21T14:25:05;4.60;;;3.30;;
55609;SDS011;41486;52.502;13.486;2023-05-21T14:27:34;6.75;;;4.45;;
55609;SDS011;41486;52.502;13.486;2023-05-21T14:30:04;5.80;;;2.92;;
55609;SDS011;41486;52.502;13.486;2023-05-21T14:32:33;7.28;;;2.65;;
55609;SDS011;41486;52.502;13.486;2023-05-21T14:35:04;7.75;;;3.42;;
55609;SDS011;41486;52.502;13.486;2023-05-21T14:37:32;7.40;;;4.20;;
55609;SDS011;41486;52.502;13.486;2023-05-21T14:40:02;4.38;;;2.47;;
55609;SDS011;41486;52.502;13.486;2023-05-21T14:42:33;4.18;;;3.05;;
55609;SDS011;41486;52.502;13.486;2023-05-21T14:45:02;4.40;;;2.83;;
55609;SDS011;41486;52.502;13.486;2023-05-21T14:47:44;3.97;;;2.50;;
55609;SDS011;41486;52.502;13.486;2023-05-21T14:50:16;4.32;;;2.72;;
55609;SDS011;41486;52.502;13.486;2023-05-21T14:52:44;6.70;;;3.40;;
55609;SDS011;41486;52.502;13.486;2023-05-21T14:55:13;7.63;;;2.78;;
55609;SDS011;41486;52.502;13.486;2023-05-21T14:57:42;4.00;;;2.72;;
55609;SDS011;41486;52.502;13.486;2023-05-21T15:00:11;3.60;;;2.92;;
55609;SDS011;41486;52.502;13.486;2023-05-21T15:02:39;9.25;;;2.83;;
55609;SDS011;41486;52.502;13.486;2023-05-21T15:05:08;6.93;;;2.97;;
55609;SDS011;41486;52.502;13.486;2023-05-21T15:07:37;3.50;;;2.80;;
55609;SDS011;41486;52.502;13.486;2023-05-21T15:10:08;10.57;;;2.80;;
55609;SDS011;41486;52.502;13.486;2023-05-21T15:12:36;4.05;;;2.45;;
55609;SDS011;41486;52.502;13.486;2023-05-21T15:15:05;5.30;;;2.13;;
55609;SDS011;41486;52.502;13.486;2023-05-21T15:17:34;7.30;;;2.67;;
55609;SDS011;41486;52.502;13.486;2023-05-21T15:20:02;5.53;;;2.80;;
55609;SDS011;41486;52.502;13.486;2023-05-21T15:22:31;4.47;;;2.70;;
55609;SDS011;41486;52.502;13.486;2023-05-21T15:25:01;2.60;;;2.30;;
55609;SDS011;41486;52.502;13.486;2023-05-21T15:27:30;4.28;;;2.60;;
55609;SDS011;41486;52.502;13.486;2023-05-21T15:29:58;3.65;;;2.70;;
55609;SDS011;41486;52.502;13.486;2023-05-21T15:32:26;3.85;;;2.50;;
55609;SDS011;41486;52.502;13.486;2023-05-21T15:34:54;2.78;;;2.20;;
55609;SDS011;41486;52.502;13.486;2023-05-21T15:37:22;5.30;;;2.63;;
55609;SDS011;41486;52.502;13.486;2023-05-21T15:39:50;4.20;;;2.55;;
55609;SDS011;41486;52.502;13.486;2023-05-21T15:42:20;4.63;;;2.47;;
55609;SDS011;41486;52.502;13.486;2023-05-21T15:44:48;5.10;;;2.70;;
55609;SDS011;41486;52.502;13.486;2023-05-21T15:47:17;3.92;;;3.13;;
55609;SDS011;41486;52.502;13.486;2023-05-21T15:49:45;5.13;;;2.80;;
55609;SDS011;41486;52.502;13.486;2023-05-21T15:52:13;7.00;;;2.42;;
55609;SDS011;41486;52.502;13.486;2023-05-21T15:54:41;2.88;;;2.50;;
55609;SDS011;41486;52.502;13.486;2023-05-21T15:57:09;3.20;;;2.35;;
55609;SDS011;41486;52.502;13.486;2023-05-21T15:59:38;7.50;;;2.70;;